Forres, United Kingdom
Current Conditions -  °F | °C
As of 6:50 PM on Friday 31 Oct 2014 (Local Time) from EGQK Reporting Station
Few Clouds Few Clouds  
Wind Chill: 59°   Ceiling: Unl
Heat Index: 59°   Visibility: 6mi
Dew Point: 52°   Wind: 3mph
Humidity: 77%   Direction: 150°SSE
Pressure: 29.53"   Gusts: NA
Location:  57.61°N, 3.61°W
Report Text: EGQK 311850Z AUTO 15003KT 9999 FEW170/// 15/11 Q1000
Loading
Personal Weather Stations






























Interactive Weather Map
Tropical Storm Tracking
New forecast layout! Learn more

10-Day Weather Forecast

Advertisements
Track Severe Weather on mobile